Open Full Screen Window  High Contrast Mode
Wind Gusting 00 knots
06
February 26, 2017 11:19 PM EST
Weather Information
Wind Direction
  230 °
Wind Speed
  06 kt (7 mph)
Wind Gust
  00 kt (0 mph)
Altimeter
29.96 in
Visibility
10 SM
Temperature
02° C
36° F
Dewpoint
-05° C
23° F
Humidity
60%
1hr Rain Fall
00.00 in.
24hr Rain Fall
00.00 in.
Sky Condition
Scattered @ 7,000 ft
VFR

METAR KIKW 270419Z AUTO 23006KT 10SM SCT070 02/M05 A2996 RMK AO2 T00161054

*Background is not an actual portrayal of the airport.